Time;durP1;ratioP1;P1;durP2;ratioP2;P2;SDS_P1;SDS_P2;PMS_P1;PMS_P2;Temp;Humidity;BMP_temperature;BMP_pressure;BME280_temperature;BME280_humidity;BME280_pressure;Samples;Min_cycle;Max_cycle;Signal;HPM_P1;HPM_P2
2022/05/16 00:02:04;;;;;;;4.77;2.40;;;;;;;9.29;65.04;101052.30;1824127;78;21509;-73
2022/05/16 00:04:31;;;;;;;7.80;2.83;;;;;;;9.29;65.22;101057.98;1824209;78;20988;-75
2022/05/16 00:06:58;;;;;;;6.47;2.50;;;;;;;9.30;65.27;101055.77;1824136;78;21039;-74
2022/05/16 00:09:25;;;;;;;5.53;2.60;;;;;;;9.27;65.24;101055.84;1824497;78;21481;-73
2022/05/16 00:11:52;;;;;;;6.90;2.40;;;;;;;9.23;65.33;101051.13;1824034;78;21035;-73
2022/05/16 00:14:20;;;;;;;5.83;2.40;;;;;;;9.22;65.34;101059.00;1824499;78;21016;-75
2022/05/16 00:16:47;;;;;;;6.07;2.70;;;;;;;9.18;65.46;101053.42;1824127;78;21579;-74
2022/05/16 00:19:14;;;;;;;8.07;2.73;;;;;;;9.20;65.60;101056.84;1824448;78;21027;-74
2022/05/16 00:21:41;;;;;;;4.33;2.37;;;;;;;9.18;65.55;101057.35;1824228;78;21094;-73
2022/05/16 00:24:08;;;;;;;5.47;2.40;;;;;;;9.13;65.60;101059.59;1824085;78;21074;-74
2022/05/16 00:26:35;;;;;;;5.77;2.80;;;;;;;9.12;65.73;101060.50;1824192;78;22018;-75
2022/05/16 00:29:02;;;;;;;5.60;2.50;;;;;;;9.10;65.70;101057.05;1821677;78;21035;-73
2022/05/16 00:31:29;;;;;;;15.77;3.37;;;;;;;9.07;65.73;101053.64;1821371;78;21591;-77
2022/05/16 00:33:56;;;;;;;9.23;2.47;;;;;;;9.02;65.71;101056.34;1821470;78;21110;-73
2022/05/16 00:36:23;;;;;;;9.83;2.50;;;;;;;9.00;65.88;101052.03;1821313;78;22237;-76
2022/05/16 00:38:54;;;;;;;7.93;2.30;;;;;;;9.01;66.03;101052.47;1821471;78;20992;-73
2022/05/16 00:41:21;;;;;;;4.37;2.00;;;;;;;9.00;65.96;101052.03;1821430;78;20988;-74
2022/05/16 00:43:56;;;;;;;5.17;2.27;;;;;;;8.98;66.14;101053.39;1821834;78;21546;-74
2022/05/16 00:46:27;;;;;;;6.43;2.53;;;;;;;8.99;66.08;101054.24;1821493;78;21076;-73
2022/05/16 00:48:55;;;;;;;4.00;2.40;;;;;;;8.97;66.14;101059.48;1821658;78;21007;-73
2022/05/16 00:51:30;;;;;;;4.33;2.30;;;;;;;8.93;66.07;101057.39;1821519;78;21032;-74
2022/05/16 00:54:05;;;;;;;5.37;2.43;;;;;;;8.91;66.07;101064.84;1819732;78;21055;-73
2022/05/16 00:56:34;;;;;;;6.20;2.40;;;;;;;8.85;66.05;101067.59;1812007;78;21036;-75
2022/05/16 00:59:01;;;;;;;7.73;2.20;;;;;;;8.85;66.30;101071.05;1821900;78;21954;-73
2022/05/16 01:07:00;;;;;;;5.60;1.97;;;;;;;8.75;66.40;101064.27;1821422;78;20992;-74
2022/05/16 01:09:27;;;;;;;6.13;2.40;;;;;;;8.72;66.44;101070.86;1821389;78;22278;-74
2022/05/16 01:11:55;;;;;;;7.00;2.70;;;;;;;8.68;66.46;101063.98;1821485;78;21116;-74
2022/05/16 01:14:45;;;;;;;5.07;2.33;;;;;;;8.65;66.47;101072.74;1821393;78;21508;-74
2022/05/16 01:17:14;;;;;;;6.42;2.30;;;;;;;8.63;66.56;101067.98;1820606;78;20996;-74
2022/05/16 01:19:41;;;;;;;6.63;2.17;;;;;;;8.61;66.66;101072.36;1821390;78;22039;-77
2022/05/16 01:22:25;;;;;;;6.17;2.13;;;;;;;8.58;66.63;101067.65;1821773;78;21478;-76
2022/05/16 01:24:56;;;;;;;4.63;2.10;;;;;;;8.53;66.71;101069.48;1819338;78;21114;-77
2022/05/16 01:27:24;;;;;;;7.27;2.60;;;;;;;8.48;66.84;101068.27;1788881;80;21227;-73
2022/05/16 01:29:51;;;;;;;4.23;2.30;;;;;;;8.45;66.96;101075.72;1789124;80;21008;-76
2022/05/16 01:32:18;;;;;;;4.27;2.10;;;;;;;8.46;67.10;101077.87;1789143;80;21032;-73
2022/05/16 01:34:45;;;;;;;4.37;2.10;;;;;;;8.43;67.12;101075.33;1789064;80;21071;-73
2022/05/16 01:37:13;;;;;;;4.90;2.30;;;;;;;8.39;67.20;101074.49;1789244;80;21133;-77
2022/05/16 01:39:40;;;;;;;4.93;2.10;;;;;;;8.39;67.31;101071.88;1788958;80;21027;-74
2022/05/16 01:42:10;;;;;;;7.27;2.83;;;;;;;8.38;67.33;101078.42;1789101;80;21031;-74
2022/05/16 01:44:38;;;;;;;9.55;2.12;;;;;;;8.36;67.37;101076.27;1760877;80;21067;-73
2022/05/16 01:47:05;;;;;;;6.93;2.87;;;;;;;8.32;67.40;101075.47;1789147;80;21007;-73
2022/05/16 01:49:32;;;;;;;3.70;2.40;;;;;;;8.30;67.63;101073.32;1789045;80;21158;-73
2022/05/16 01:51:59;;;;;;;5.80;2.30;;;;;;;8.28;67.54;101067.25;1789085;80;21474;-73
2022/05/16 01:54:26;;;;;;;6.63;2.80;;;;;;;8.26;67.51;101066.44;1789431;80;21529;-73
2022/05/16 01:56:53;;;;;;;7.17;2.80;;;;;;;8.23;67.62;101065.16;1789085;80;21472;-73
2022/05/16 01:59:20;;;;;;;5.30;2.73;;;;;;;8.20;67.62;101065.21;1789358;80;21158;-74
2022/05/16 02:01:47;;;;;;;6.23;2.47;;;;;;;8.15;67.68;101065.76;1789013;80;21099;-73
2022/05/16 02:04:15;;;;;;;5.07;2.20;;;;;;;8.11;67.77;101069.29;1788987;80;21059;-74
2022/05/16 02:06:42;;;;;;;4.30;2.27;;;;;;;8.10;67.89;101070.19;1789188;80;21414;-74
2022/05/16 02:09:10;;;;;;;5.37;2.37;;;;;;;8.09;67.91;101068.44;1789029;80;21031;-75
2022/05/16 02:11:38;;;;;;;5.30;2.10;;;;;;;8.04;67.89;101077.23;1789106;80;21136;-73
2022/05/16 02:14:05;;;;;;;5.00;2.40;;;;;;;8.00;67.92;101080.75;1789258;80;21090;-73
2022/05/16 02:16:32;;;;;;;4.90;2.27;;;;;;;7.96;67.97;101080.84;1788985;80;20991;-73
2022/05/16 02:18:59;;;;;;;5.20;2.43;;;;;;;7.92;68.15;101081.31;1789020;80;21031;-74
2022/05/16 02:26:57;;;;;;;6.10;2.30;;;;;;;7.95;68.35;101083.02;1789086;80;21099;-73
2022/05/16 02:29:24;;;;;;;8.43;2.53;;;;;;;7.91;68.34;101082.66;1788803;80;21003;-73
2022/05/16 02:31:51;;;;;;;5.83;2.40;;;;;;;7.89;68.45;101077.45;1789101;80;21036;-73
2022/05/16 02:34:18;;;;;;;5.43;2.60;;;;;;;7.89;68.46;101076.59;1789192;80;21450;-76
2022/05/16 02:36:45;;;;;;;4.50;2.20;;;;;;;7.87;68.52;101073.13;1789081;80;21019;-73
2022/05/16 02:39:16;;;;;;;3.83;2.33;;;;;;;7.86;68.54;101070.11;1788954;80;21101;-73
2022/05/16 02:41:43;;;;;;;4.67;2.37;;;;;;;7.82;68.61;101062.78;1789158;80;21007;-73
2022/05/16 02:44:11;;;;;;;4.33;2.00;;;;;;;7.79;68.66;101062.83;1788983;80;21044;-73
2022/05/16 02:46:38;;;;;;;6.23;2.57;;;;;;;7.75;68.53;101064.60;1789213;80;21047;-76
2022/05/16 02:49:05;;;;;;;6.93;2.87;;;;;;;7.73;68.70;101066.40;1788969;80;21735;-74
2022/05/16 02:51:33;;;;;;;4.77;2.50;;;;;;;7.71;68.80;101064.24;1789248;80;21038;-73
2022/05/16 02:54:00;;;;;;;6.37;2.47;;;;;;;7.71;68.68;101062.08;1788900;80;21032;-73
2022/05/16 02:56:27;;;;;;;8.17;2.63;;;;;;;7.65;68.72;101057.81;1789241;80;21051;-73
2022/05/16 02:58:54;;;;;;;4.40;2.20;;;;;;;7.60;68.77;101059.17;1789057;80;21019;-74
2022/05/16 03:01:21;;;;;;;6.77;2.57;;;;;;;7.56;68.88;101061.84;1789332;80;20993;-73
2022/05/16 03:03:48;;;;;;;7.50;2.30;;;;;;;7.52;68.91;101063.64;1788960;80;21121;-73
2022/05/16 03:06:15;;;;;;;7.53;2.87;;;;;;;7.49;68.98;101058.47;1789144;80;21047;-73
2022/05/16 03:08:42;;;;;;;6.33;2.60;;;;;;;7.45;69.02;101053.30;1789033;80;20908;-74
2022/05/16 03:11:09;;;;;;;5.77;2.70;;;;;;;7.40;69.10;101058.60;1789355;80;21039;-73
2022/05/16 03:13:37;;;;;;;11.33;3.00;;;;;;;7.37;69.16;101059.92;1789066;80;21048;-73
2022/05/16 03:16:04;;;;;;;5.93;2.63;;;;;;;7.33;69.25;101057.80;1789348;80;21170;-73
2022/05/16 03:18:32;;;;;;;5.83;2.40;;;;;;;7.30;69.36;101059.15;1788963;80;20959;-73
2022/05/16 03:20:59;;;;;;;5.37;2.67;;;;;;;7.30;69.78;101056.54;1788942;80;21028;-74
2022/05/16 03:23:26;;;;;;;6.77;2.80;;;;;;;7.36;69.83;101056.45;1789335;80;21563;-74
2022/05/16 03:25:53;;;;;;;7.63;2.67;;;;;;;7.33;69.77;101055.64;1789291;80;21508;-73
2022/05/16 03:28:20;;;;;;;4.70;2.53;;;;;;;7.31;69.78;101056.95;1788892;80;21126;-73
2022/05/16 03:30:48;;;;;;;5.67;2.57;;;;;;;7.30;69.95;101053.93;1788965;80;21429;-73
2022/05/16 03:33:15;;;;;;;6.10;2.43;;;;;;;7.31;70.06;101048.27;1788949;80;21094;-76
2022/05/16 03:35:42;;;;;;;5.63;2.80;;;;;;;7.33;70.22;101051.28;1789282;78;21035;-76
2022/05/16 03:40:41;;;;;;;4.47;2.87;;;;;;;7.32;70.24;101052.17;1813687;78;21040;-74
2022/05/16 03:40:45;;;;;;;4.73;2.80;;;;;;;7.34;70.37;101050.42;1807190;77;21978;-75
2022/05/16 03:43:15;;;;;;;5.63;2.90;;;;;;;7.35;70.44;101045.61;1821223;78;21470;-74
2022/05/16 03:45:43;;;;;;;7.12;2.55;;;;;;;7.37;70.60;101050.37;1821345;78;21000;-76
2022/05/16 03:48:10;;;;;;;7.20;2.50;;;;;;;7.38;70.71;101048.62;1821181;78;21462;-73
2022/05/16 03:50:37;;;;;;;7.23;2.50;;;;;;;7.42;70.90;101045.52;1821153;78;21035;-73
2022/05/16 03:53:06;;;;;;;6.30;2.73;;;;;;;7.47;71.07;101046.33;1821263;78;21139;-74
2022/05/16 03:55:33;;;;;;;6.83;2.70;;;;;;;7.51;71.24;101035.84;1821129;78;21000;-73
2022/05/16 03:58:02;;;;;;;5.63;3.30;;;;;;;7.56;71.30;101046.19;1821292;78;20980;-73
2022/05/16 04:00:29;;;;;;;5.33;2.60;;;;;;;7.58;71.41;101041.38;1821420;78;22244;-75
2022/05/16 04:02:56;;;;;;;5.67;2.67;;;;;;;7.63;71.53;101043.92;1821329;78;21039;-75
2022/05/16 04:05:24;;;;;;;5.73;2.60;;;;;;;7.71;71.70;101040.77;1808117;78;21963;-73
2022/05/16 04:07:51;;;;;;;6.73;2.67;;;;;;;7.77;71.78;101038.05;1800889;77;21047;-73
2022/05/16 04:10:20;;;;;;;5.63;3.00;;;;;;;7.86;71.97;101036.19;1791000;78;20992;-74
2022/05/16 04:12:47;;;;;;;4.23;2.83;;;;;;;7.91;72.01;101026.55;1798166;77;21067;-74
2022/05/16 04:15:14;;;;;;;5.37;2.67;;;;;;;7.98;72.19;101029.03;1804603;78;20992;-74
2022/05/16 04:17:42;;;;;;;5.60;3.00;;;;;;;8.06;72.37;101027.58;1817242;78;21113;-74
2022/05/16 04:20:11;;;;;;;7.70;3.00;;;;;;;8.15;72.47;101033.12;1794105;78;21090;-75
2022/05/16 04:22:39;;;;;;;3.90;3.00;;;;;;;8.23;72.53;101037.31;1821399;78;21039;-75
2022/05/16 04:25:08;;;;;;;6.07;3.30;;;;;;;8.33;72.68;101038.45;1821775;78;20953;-73
2022/05/16 04:27:35;;;;;;;6.57;2.83;;;;;;;8.44;72.82;101040.46;1815046;78;21027;-73
2022/05/16 04:30:04;;;;;;;7.27;3.03;;;;;;;8.56;72.95;101041.98;1818530;78;21108;-73
2022/05/16 04:32:31;;;;;;;4.07;2.50;;;;;;;8.66;72.86;101039.17;1802089;78;21008;-73
2022/05/16 04:34:58;;;;;;;8.03;3.53;;;;;;;8.78;72.80;101045.05;1812538;78;20960;-72
2022/05/16 04:37:26;;;;;;;8.40;3.60;;;;;;;8.91;72.72;101041.31;1821283;78;21031;-73
2022/05/16 04:39:53;;;;;;;7.30;3.37;;;;;;;9.02;72.98;101043.27;1808383;78;21027;-73
2022/05/16 04:45:12;;;;;;;7.67;3.57;;;;;;;9.25;73.11;101040.62;1821248;78;21024;-73
2022/05/16 04:47:39;;;;;;;7.13;4.00;;;;;;;9.35;73.03;101040.84;1821299;78;21016;-74
2022/05/16 04:50:08;;;;;;;7.63;3.50;;;;;;;9.46;72.74;101048.46;1821293;78;20977;-74
2022/05/16 04:52:36;;;;;;;9.70;3.83;;;;;;;9.56;72.72;101036.87;1801907;78;21510;-73
2022/05/16 04:55:03;;;;;;;7.87;4.33;;;;;;;9.69;72.72;101044.01;1821373;78;21756;-73
2022/05/16 04:57:30;;;;;;;10.00;4.63;;;;;;;9.80;72.35;101049.85;1819681;78;21490;-73
2022/05/16 04:59:57;;;;;;;6.70;3.70;;;;;;;9.90;72.25;101044.82;1821763;78;21074;-75
2022/05/16 05:02:24;;;;;;;6.63;3.77;;;;;;;10.01;72.15;101046.73;1821428;78;21012;-73
2022/05/16 05:04:51;;;;;;;7.10;3.33;;;;;;;10.11;72.17;101048.66;1821584;78;21616;-73
2022/05/16 05:07:18;;;;;;;7.00;3.10;;;;;;;10.22;72.18;101049.70;1821330;78;21093;-73
2022/05/16 05:15:18;;;;;;;5.77;3.70;;;;;;;10.52;71.70;101054.64;1821535;78;21027;-74
2022/05/16 05:17:44;;;;;;;9.17;3.03;;;;;;;10.63;71.53;101055.67;1821413;78;21000;-73
2022/05/16 05:20:14;;;;;;;7.73;3.40;;;;;;;10.72;71.33;101054.11;1821741;78;21168;-82
2022/05/16 05:22:43;;;;;;;5.22;2.77;;;;;;;10.83;70.92;101056.44;1821378;78;21601;-73
2022/05/16 05:25:15;;;;;;;5.93;3.23;;;;;;;10.92;70.66;101054.44;1821126;78;21071;-74
2022/05/16 05:27:44;;;;;;;7.23;3.57;;;;;;;11.03;70.73;101059.38;1809115;78;21050;-73
2022/05/16 05:30:16;;;;;;;7.97;3.20;;;;;;;11.15;70.95;101064.72;1810967;78;21023;-75
2022/05/16 05:32:43;;;;;;;6.70;2.97;;;;;;;11.26;70.82;101061.33;1800413;78;21110;-72
2022/05/16 05:35:11;;;;;;;6.40;3.20;;;;;;;11.38;70.48;101066.20;1791945;80;21434;-72
2022/05/16 05:37:37;;;;;;;10.37;3.43;;;;;;;11.49;69.93;101065.03;1791896;80;21576;-76
2022/05/16 05:40:07;;;;;;;9.87;2.90;;;;;;;11.60;69.62;101060.31;1792039;80;21014;-73
2022/05/16 05:42:35;;;;;;;6.83;3.47;;;;;;;11.70;69.45;101053.88;1792269;80;21004;-73
2022/05/16 05:45:04;;;;;;;8.60;3.60;;;;;;;11.81;68.86;101057.48;1791960;80;21102;-76
2022/05/16 05:47:31;;;;;;;7.40;3.00;;;;;;;11.92;68.52;101053.25;1801640;78;21059;-75
2022/05/16 05:49:59;;;;;;;6.57;2.53;;;;;;;12.02;68.67;101044.13;1799167;78;21008;-76
2022/05/16 05:52:29;;;;;;;8.70;3.00;;;;;;;12.15;68.35;101045.91;1794547;78;21146;-76
2022/05/16 05:54:56;;;;;;;;;;;;;;;12.25;67.87;101049.50;1807496;78;21482;-77
2022/05/16 05:57:25;;;;;;;5.57;2.53;;;;;;;12.36;67.42;101053.52;1821806;78;21075;-75
2022/05/16 05:59:54;;;;;;;6.93;2.80;;;;;;;12.44;67.38;101055.00;1823938;78;21040;-76
2022/05/16 06:02:21;;;;;;;4.53;2.20;;;;;;;12.54;67.18;101054.21;1822381;78;20992;-77
2022/05/16 06:04:48;;;;;;;6.60;2.62;;;;;;;12.64;66.72;101058.25;1817108;78;21036;-77
2022/05/16 06:07:16;;;;;;;7.12;2.95;;;;;;;12.70;66.20;101051.45;1822831;78;21505;-74
2022/05/16 06:09:43;;;;;;;5.72;3.42;;;;;;;12.78;66.05;101049.87;1812754;78;21144;-74
2022/05/16 06:12:11;;;;;;;4.97;2.37;;;;;;;12.87;66.06;101050.84;1824171;78;21007;-75
2022/05/16 06:14:38;;;;;;;6.95;2.60;;;;;;;12.95;66.07;101054.05;1824203;78;21020;-75
2022/05/16 06:17:05;;;;;;;10.25;3.70;;;;;;;13.05;65.78;101049.33;1824075;78;20992;-76
2022/05/16 06:19:32;;;;;;;4.60;2.40;;;;;;;13.12;65.65;101042.91;1824266;78;21228;-75
2022/05/16 06:21:59;;;;;;;7.03;2.35;;;;;;;13.23;65.62;101048.23;1824145;78;21505;-75
2022/05/16 06:27:11;;;;;;;4.87;1.98;;;;;;;13.45;65.10;101033.36;1824179;78;21027;-76
2022/05/16 06:29:38;;;;;;;4.53;1.80;;;;;;;13.60;65.07;101026.63;1823245;78;21486;-76
2022/05/16 06:32:07;;;;;;;6.17;2.20;;;;;;;13.75;64.92;101034.39;1820887;78;21440;-77
2022/05/16 06:34:33;;;;;;;4.65;2.25;;;;;;;13.86;64.32;101032.65;1820992;78;22355;-77
2022/05/16 06:37:00;;;;;;;5.72;1.98;;;;;;;13.94;63.88;101039.31;1820880;78;20988;-81
2022/05/16 06:39:27;;;;;;;6.65;2.15;;;;;;;14.05;63.84;101038.41;1816892;78;21015;-78
2022/05/16 06:41:54;;;;;;;5.30;2.40;;;;;;;14.16;63.55;101043.25;1820943;78;21494;-76
2022/05/16 06:44:21;;;;;;;7.08;2.52;;;;;;;14.25;63.14;101049.45;1791837;78;21035;-76
2022/05/16 06:46:48;;;;;;;5.53;1.90;;;;;;;14.33;62.83;101046.49;1804173;78;21112;-76
2022/05/16 06:49:15;;;;;;;7.50;1.70;;;;;;;14.42;62.78;101043.92;1818624;78;21027;-76
2022/05/16 06:51:42;;;;;;;4.50;1.90;;;;;;;14.54;62.58;101042.09;1821012;78;20988;-77
2022/05/16 06:54:09;;;;;;;3.45;1.92;;;;;;;14.68;62.52;101037.53;1821391;78;21024;-77
2022/05/16 06:56:36;;;;;;;5.90;1.82;;;;;;;14.82;62.04;101044.84;1820695;78;20973;-77
2022/05/16 06:59:03;;;;;;;3.20;1.98;;;;;;;14.95;61.86;101046.02;1821477;78;21073;-76
2022/05/16 07:01:30;;;;;;;6.67;2.20;;;;;;;15.09;61.72;101038.80;1820849;78;21080;-76
2022/05/16 07:03:57;;;;;;;6.45;2.33;;;;;;;15.18;61.12;101036.57;1817086;78;21477;-76
2022/05/16 07:06:24;;;;;;;7.10;2.10;;;;;;;15.26;60.79;101045.47;1816235;78;21063;-76
2022/05/16 07:08:51;;;;;;;7.30;1.90;;;;;;;15.36;60.56;101037.98;1820908;78;21043;-76
2022/05/16 07:11:18;;;;;;;4.97;2.00;;;;;;;15.48;60.32;101038.72;1818654;78;21181;-76
2022/05/16 07:13:45;;;;;;;3.98;1.60;;;;;;;15.60;60.12;101037.27;1791662;78;21078;-78
2022/05/16 07:16:12;;;;;;;4.65;1.70;;;;;;;15.74;59.71;101030.03;1821277;78;20972;-79
2022/05/16 07:18:39;;;;;;;6.75;2.15;;;;;;;15.86;59.55;101031.25;1821247;78;21024;-78
2022/05/16 07:21:07;;;;;;;6.72;1.85;;;;;;;15.98;58.97;101025.34;1821070;78;21083;-79
2022/05/16 07:23:34;;;;;;;5.15;1.95;;;;;;;16.14;58.84;101020.16;1821022;78;21209;-78
2022/05/16 07:28:46;;;;;;;5.28;1.57;;;;;;;16.46;58.42;101020.70;1821117;78;20992;-85
2022/05/16 07:31:13;;;;;;;4.67;1.72;;;;;;;16.64;57.65;101022.84;1823240;78;21023;-84
2022/05/16 07:33:40;;;;;;;12.55;2.47;;;;;;;16.78;57.00;101024.80;1824006;78;21397;-83
2022/05/16 07:36:08;;;;;;;11.40;2.72;;;;;;;16.89;56.94;101027.72;1823934;78;21067;-83
2022/05/16 07:38:35;;;;;;;11.95;3.00;;;;;;;17.04;56.90;101024.70;1823948;78;21079;-83
2022/05/16 07:41:03;;;;;;;4.53;1.62;;;;;;;17.21;56.45;101026.91;1824027;78;21062;-83
2022/05/16 07:43:30;;;;;;;4.15;1.57;;;;;;;17.26;55.66;101023.55;1824384;78;20988;-83
2022/05/16 07:45:57;;;;;;;4.83;1.57;;;;;;;17.26;55.14;101020.89;1824119;78;21532;-82
2022/05/16 07:48:25;;;;;;;14.30;2.80;;;;;;;17.30;54.90;101021.13;1824307;78;21163;-84
2022/05/16 07:50:52;;;;;;;8.53;1.70;;;;;;;17.35;55.14;101019.94;1824048;78;20947;-84
2022/05/16 07:53:19;;;;;;;4.03;1.57;;;;;;;17.57;54.75;101020.03;1824579;78;21420;-84
2022/05/16 07:55:53;;;;;;;5.55;1.50;;;;;;;17.71;54.22;101018.81;1824190;78;21047;-83
2022/05/16 07:58:22;;;;;;;4.42;1.35;;;;;;;17.82;53.98;101012.45;1824626;78;21015;-79
2022/05/16 08:00:50;;;;;;;4.35;1.57;;;;;;;17.96;53.52;101010.80;1824127;78;21944;-80
2022/05/16 08:03:21;;;;;;;4.22;1.42;;;;;;;18.08;53.30;101017.19;1824374;78;21023;-83
2022/05/16 08:05:48;;;;;;;7.35;1.70;;;;;;;18.19;52.89;101018.25;1824139;78;21029;-84
2022/05/16 08:11:02;;;;;;;3.72;1.65;;;;;;;18.48;52.53;101004.59;1824281;78;20972;-84
2022/05/16 08:13:30;;;;;;;5.00;1.60;;;;;;;18.61;52.25;101009.14;1824136;78;22291;-78
2022/05/16 08:15:58;;;;;;;5.37;1.60;;;;;;;18.71;51.83;101012.47;1824114;78;21031;-84
2022/05/16 08:18:25;;;;;;;5.03;1.50;;;;;;;18.76;51.71;101015.33;1824166;78;21043;-79
2022/05/16 08:20:53;;;;;;;4.28;1.60;;;;;;;18.84;51.44;101014.39;1824196;78;21051;-83
2022/05/16 08:23:28;;;;;;;3.33;1.50;;;;;;;18.92;51.09;101018.27;1824168;78;21046;-84
2022/05/16 08:25:59;;;;;;;3.40;1.40;;;;;;;19.02;50.67;101023.03;1824338;78;21917;-80
2022/05/16 08:28:26;;;;;;;4.20;1.90;;;;;;;19.05;50.03;101020.18;1824051;78;21489;-81
2022/05/16 08:30:53;;;;;;;3.25;1.25;;;;;;;19.09;49.92;101017.25;1822706;78;21050;-78
2022/05/16 08:33:22;;;;;;;6.10;1.70;;;;;;;19.22;50.06;101017.78;1821351;78;21402;-76
2022/05/16 08:39:52;;;;;;;4.70;1.57;;;;;;;19.38;50.15;101014.53;1821282;78;22220;-76
2022/05/16 08:41:08;;;;;;;4.87;1.55;;;;;;;19.63;49.15;101017.78;1821527;78;21027;-76
2022/05/16 08:43:50;;;;;;;5.25;1.65;;;;;;;19.79;48.67;101021.19;1821310;78;21004;-75
2022/05/16 08:46:46;;;;;;;8.48;2.17;;;;;;;19.86;48.43;101015.45;1820804;78;20961;-76
2022/05/16 08:49:38;;;;;;;4.30;1.65;;;;;;;19.96;48.42;101016.08;1821204;78;21027;-76
2022/05/16 08:52:17;;;;;;;4.58;1.55;;;;;;;20.06;47.87;101012.30;1821476;78;21105;-76
2022/05/16 08:55:01;;;;;;;3.87;1.50;;;;;;;20.12;47.48;101006.59;1821114;78;21012;-77
2022/05/16 08:57:38;;;;;;;5.17;1.55;;;;;;;20.18;47.17;101000.85;1821559;78;21420;-84
2022/05/16 09:00:11;;;;;;;4.37;2.00;;;;;;;20.26;47.01;101001.19;1821354;78;21735;-76
2022/05/16 09:02:42;;;;;;;4.00;1.45;;;;;;;20.42;46.95;100996.97;1821448;78;21035;-76
2022/05/16 09:05:24;;;;;;;4.05;1.32;;;;;;;20.49;46.33;101001.41;1821264;78;21521;-81
2022/05/16 09:07:55;;;;;;;2.67;1.30;;;;;;;20.58;46.72;100998.62;1820807;78;20972;-76
2022/05/16 09:10:33;;;;;;;2.65;1.20;;;;;;;20.76;46.54;100997.80;1821317;78;20988;-84
2022/05/16 09:13:41;;;;;;;4.33;1.30;;;;;;;20.93;46.29;101001.48;1819752;78;20981;-77
2022/05/16 09:16:18;;;;;;;2.67;1.50;;;;;;;21.10;45.95;101007.78;1821287;78;21476;-85
2022/05/16 09:19:06;;;;;;;3.50;1.37;;;;;;;21.28;45.27;100996.75;1820261;78;21119;-78
2022/05/16 09:21:51;;;;;;;5.78;1.37;;;;;;;21.37;44.95;100996.14;1821146;78;21035;-79
2022/05/16 09:24:29;;;;;;;3.15;1.15;;;;;;;21.49;44.68;100994.38;1820734;78;21082;-77
2022/05/16 09:27:14;;;;;;;4.22;1.20;;;;;;;21.57;43.94;100984.84;1821503;78;21425;-77
2022/05/16 09:29:46;;;;;;;4.62;1.50;;;;;;;21.65;44.17;100976.77;1820100;78;21485;-76
2022/05/16 09:32:29;;;;;;;4.83;1.22;;;;;;;21.81;44.07;100972.83;1821272;78;21139;-76
2022/05/16 09:34:57;;;;;;;4.92;1.52;;;;;;;21.97;43.78;100968.50;1821575;78;21446;-86
2022/05/16 09:37:24;;;;;;;5.03;1.47;;;;;;;22.05;43.07;100963.43;1821163;78;21490;-76
2022/05/16 09:39:53;;;;;;;5.53;1.57;;;;;;;22.11;42.82;100967.94;1821609;78;21098;-84
2022/05/16 09:42:34;;;;;;;4.25;1.47;;;;;;;22.21;42.47;100971.65;1821502;78;20992;-77
2022/05/16 09:45:12;;;;;;;3.42;1.45;;;;;;;22.24;42.11;100969.58;1821539;78;21542;-77
2022/05/16 09:47:42;;;;;;;2.55;1.35;;;;;;;22.34;41.93;100971.56;1819092;78;21094;-83
2022/05/16 09:50:14;;;;;;;;;;;;;;;22.38;41.47;100975.19;1824255;78;21016;-77
2022/05/16 09:53:07;;;;;;;5.42;1.50;;;;;;;22.39;41.00;100972.03;1821252;78;20160;-77
2022/05/16 09:55:51;;;;;;;2.30;1.10;;;;;;;22.44;41.02;100981.88;1821315;78;21098;-78
2022/05/16 09:58:22;;;;;;;3.90;1.32;;;;;;;22.48;40.64;100973.52;1821178;78;21958;-78
2022/05/16 10:01:03;;;;;;;2.65;1.15;;;;;;;22.51;40.72;100972.92;1821194;78;21007;-78
2022/05/16 10:03:49;;;;;;;3.27;1.10;;;;;;;22.61;40.42;100980.56;1821166;78;20988;-84
2022/05/16 10:06:30;;;;;;;1.95;1.00;;;;;;;22.71;40.10;100981.05;1821654;78;20992;-83
2022/05/16 10:09:08;;;;;;;4.10;1.50;;;;;;;22.77;39.64;100980.20;1799676;78;21015;-79
2022/05/16 10:11:38;;;;;;;4.15;1.65;;;;;;;22.80;39.64;100977.29;1821596;78;21156;-84
2022/05/16 10:14:06;;;;;;;4.70;1.40;;;;;;;22.87;39.84;100979.85;1821136;78;21019;-77
2022/05/16 10:16:36;;;;;;;3.15;1.22;;;;;;;23.08;39.99;100972.80;1821437;78;21023;-79
2022/05/16 10:19:11;;;;;;;2.25;1.25;;;;;;;23.36;40.10;100969.22;1821167;78;21079;-78
2022/05/16 10:22:02;;;;;;;4.03;1.30;;;;;;;23.66;39.80;100962.32;1821635;78;20978;-78
2022/05/16 10:24:34;;;;;;;4.17;1.45;;;;;;;23.95;39.86;100964.78;1817972;78;21083;-78
2022/05/16 10:27:09;;;;;;;2.10;1.40;;;;;;;24.30;39.11;100961.41;1792320;78;21091;-77
2022/05/16 10:29:44;;;;;;;4.00;1.10;;;;;;;24.44;38.54;100953.05;1792359;78;20992;-81
2022/05/16 10:35:13;;;;;;;3.77;1.17;;;;;;;24.65;37.56;100951.68;1824111;78;20976;-78
2022/05/16 10:37:44;;;;;;;2.95;1.12;;;;;;;24.91;37.32;100950.70;1824323;78;21173;-77
2022/05/16 10:40:32;;;;;;;5.95;1.40;;;;;;;25.04;36.98;100944.61;1823951;78;21498;-82
2022/05/16 10:43:35;;;;;;;1.90;0.90;;;;;;;25.34;37.05;100948.24;1824404;78;20999;-78
2022/05/16 10:46:13;;;;;;;2.47;1.10;;;;;;;25.60;36.38;100942.66;1823568;78;21032;-78
2022/05/16 10:48:47;;;;;;;3.67;1.20;;;;;;;25.80;35.57;100934.60;1824404;78;21020;-80
2022/05/16 10:51:19;;;;;;;3.37;1.17;;;;;;;25.92;35.26;100933.52;1824086;78;21876;-78
2022/05/16 10:54:07;;;;;;;3.75;1.32;;;;;;;25.98;34.85;100932.92;1804606;78;20980;-85
2022/05/16 10:57:22;;;;;;;3.87;1.05;;;;;;;26.12;34.59;100931.63;1824081;78;21488;-78
2022/05/16 10:59:54;;;;;;;2.37;1.15;;;;;;;26.29;34.11;100926.00;1824380;78;21011;-77
2022/05/16 11:02:27;;;;;;;3.60;1.27;;;;;;;26.43;34.01;100926.02;1823470;78;21500;-80
2022/05/16 11:05:39;;;;;;;3.42;1.20;;;;;;;26.55;33.64;100926.23;1823852;78;21171;-77
2022/05/16 11:08:39;;;;;;;4.15;1.12;;;;;;;26.72;33.97;100920.57;1823927;78;21426;-77
2022/05/16 11:11:32;;;;;;;4.60;1.40;;;;;;;26.96;33.33;100909.73;1794639;78;21449;-76
2022/05/16 11:14:49;;;;;;;2.98;1.32;;;;;;;27.00;32.74;100904.42;1819287;78;21512;-79
2022/05/16 11:17:33;;;;;;;3.67;1.12;;;;;;;27.06;32.27;100905.16;1824090;78;20976;-77
2022/05/16 11:20:08;;;;;;;1.72;0.95;;;;;;;27.24;31.83;100905.19;1823947;78;21949;-77
2022/05/16 11:22:49;;;;;;;3.22;1.20;;;;;;;27.43;31.53;100905.55;1823809;78;21505;-77
2022/05/16 11:25:34;;;;;;;2.33;1.00;;;;;;;27.68;31.49;100896.67;1813208;78;20984;-76
2022/05/16 11:29:17;;;;;;;3.05;1.05;;;;;;;27.95;31.23;100896.24;1808107;78;37857;-75
2022/05/16 11:31:19;;;;;;;3.10;1.05;;;;;;;28.21;30.48;100903.84;1819175;78;21553;-78
2022/05/16 11:33:55;;;;;;;3.33;1.25;;;;;;;28.36;29.85;100900.03;1821631;78;21090;-85
2022/05/16 11:36:39;;;;;;;2.75;1.00;;;;;;;28.52;29.80;100897.09;1817590;78;20932;-88
2022/05/16 11:39:14;;;;;;;2.08;1.20;;;;;;;28.56;29.42;100894.43;1799243;78;21044;-77
2022/05/16 11:42:05;;;;;;;4.00;1.50;;;;;;;28.62;29.24;100897.31;1794809;78;21059;-75
2022/05/16 11:45:02;;;;;;;2.65;0.82;;;;;;;28.58;29.17;100886.52;1790019;77;21007;-75
2022/05/16 11:47:58;;;;;;;2.42;1.00;;;;;;;28.63;29.20;100890.92;1775026;78;21179;-86
2022/05/16 11:50:50;;;;;;;1.90;0.80;;;;;;;28.73;28.86;100884.03;1800211;78;20991;-75
2022/05/16 11:53:41;;;;;;;1.57;0.90;;;;;;;28.79;28.80;100888.77;1789719;78;20967;-74
2022/05/16 12:02:29;;;;;;;0.95;0.68;;;;;;;28.94;27.83;100864.72;1789077;80;21220;-78
2022/05/16 12:05:23;;;;;;;4.03;1.15;;;;;;;28.83;28.20;100868.56;1789330;80;21011;-74
2022/05/16 12:08:04;;;;;;;3.90;1.02;;;;;;;28.80;27.93;100860.80;1788941;80;21030;-74
2022/05/16 12:10:33;;;;;;;2.42;1.20;;;;;;;28.68;27.46;100855.35;1789042;80;21035;-74
2022/05/16 12:13:27;;;;;;;4.75;1.20;;;;;;;28.44;27.93;100848.04;1789028;80;21567;-74
2022/05/16 12:16:18;;;;;;;3.85;1.00;;;;;;;28.59;27.80;100845.05;1788941;80;21107;-77
2022/05/16 12:18:50;;;;;;;2.00;0.80;;;;;;;28.61;27.93;100842.20;1788961;80;21223;-74
2022/05/16 12:21:35;;;;;;;1.52;0.80;;;;;;;28.85;27.91;100839.58;1785570;80;21043;-74
2022/05/16 12:24:31;;;;;;;1.80;0.80;;;;;;;28.90;27.65;100830.96;1789047;80;20980;-74
2022/05/16 12:27:23;;;;;;;1.20;0.68;;;;;;;28.98;27.56;100824.74;1789441;80;21019;-74
2022/05/16 12:29:56;;;;;;;2.45;0.90;;;;;;;29.12;27.47;100822.77;1789154;80;21128;-75
2022/05/16 12:32:34;;;;;;;2.17;1.20;;;;;;;29.24;27.11;100823.30;1790953;80;21011;-75